Time;durP1;ratioP1;P1;durP2;ratioP2;P2;SDS_P1;SDS_P2;PMS_P1;PMS_P2;Temp;Humidity;BMP_temperature;BMP_pressure;BME280_temperature;BME280_humidity;BME280_pressure;Samples;Min_cycle;Max_cycle;Signal;HPM_P1;HPM_P2
2023/07/15 00:01:25;;;;;;;7.13;1.27;;;23.40;77.80;;;;;;5009356;28;20034;-61
2023/07/15 00:03:52;;;;;;;2.42;1.38;;;23.40;78.20;;;;;;5032271;28;20063;-60
2023/07/15 00:06:20;;;;;;;2.30;1.20;;;23.30;78.40;;;;;;5009299;28;20055;-61
2023/07/15 00:08:47;;;;;;;8.32;1.23;;;23.20;78.90;;;;;;5014891;28;20025;-60
2023/07/15 00:11:31;;;;;;;2.53;1.05;;;23.20;79.10;;;;;;4992578;28;20531;-61
2023/07/15 00:13:58;;;;;;;5.15;1.45;;;23.20;79.60;;;;;;5015729;28;20036;-60
2023/07/15 00:16:26;;;;;;;2.53;1.50;;;23.10;79.90;;;;;;5009074;28;20381;-60
2023/07/15 00:18:52;;;;;;;3.17;1.08;;;23.00;80.10;;;;;;5031943;28;20037;-60
2023/07/15 00:21:25;;;;;;;4.03;1.40;;;22.90;80.50;;;;;;5026761;28;20037;-61
2023/07/15 00:23:55;;;;;;;2.20;1.27;;;22.90;80.90;;;;;;5031815;28;20069;-61
2023/07/15 00:26:29;;;;;;;1.83;1.10;;;22.70;81.50;;;;;;5026566;28;20029;-61
2023/07/15 00:28:55;;;;;;;4.47;1.60;;;22.60;82.50;;;;;;5014445;28;20438;-61
2023/07/15 00:31:23;;;;;;;1.88;1.17;;;22.50;82.90;;;;;;5009291;28;20033;-60
2023/07/15 00:33:49;;;;;;;1.75;1.02;;;22.40;83.60;;;;;;5013740;28;20545;-60
2023/07/15 00:36:16;;;;;;;2.10;1.13;;;22.30;84.00;;;;;;5008688;28;20072;-60
2023/07/15 00:38:43;;;;;;;2.08;1.00;;;22.30;84.20;;;;;;5031643;28;20029;-61
2023/07/15 00:41:25;;;;;;;1.83;1.00;;;22.30;84.30;;;;;;5007726;28;20050;-61
2023/07/15 00:43:58;;;;;;;6.20;1.20;;;22.30;84.20;;;;;;5031429;28;20504;-61
2023/07/15 00:46:41;;;;;;;1.83;1.15;;;22.40;84.40;;;;;;5026299;28;20496;-62
2023/07/15 00:49:23;;;;;;;3.28;0.98;;;22.30;84.50;;;;;;5029961;28;20045;-61
2023/07/15 00:52:16;;;;;;;9.25;1.30;;;22.30;84.90;;;;;;5026233;28;20087;-62
2023/07/15 00:54:48;;;;;;;5.32;1.20;;;22.20;85.40;;;;;;5004444;28;20029;-60
2023/07/15 00:57:17;;;;;;;1.98;1.00;;;22.20;85.90;;;;;;5008772;28;20021;-60
2023/07/15 00:59:45;;;;;;;2.25;1.20;;;22.20;86.00;;;;;;5013730;28;20044;-60
2023/07/15 01:02:12;;;;;;;2.70;1.20;;;22.10;86.20;;;;;;5025764;28;20037;-60
2023/07/15 01:04:38;;;;;;;2.50;1.17;;;22.10;86.30;;;;;;4986384;28;20084;-60
2023/07/15 01:07:07;;;;;;;2.95;1.30;;;22.10;86.30;;;;;;4995152;28;20056;-60
2023/07/15 01:09:34;;;;;;;3.45;1.13;;;22.10;86.40;;;;;;5000308;28;20048;-61
2023/07/15 01:12:00;;;;;;;5.55;0.93;;;22.20;86.60;;;;;;5024337;28;20100;-61
2023/07/15 01:14:29;;;;;;;1.15;0.80;;;22.20;86.20;;;;;;5013051;28;20456;-61
2023/07/15 01:16:55;;;;;;;9.15;1.20;;;22.20;85.90;;;;;;5018845;28;20045;-61
2023/07/15 01:19:21;;;;;;;2.35;1.10;;;22.30;86.10;;;;;;5030597;28;20039;-60
2023/07/15 01:21:49;;;;;;;2.05;1.30;;;22.30;86.40;;;;;;5025731;28;20041;-61
2023/07/15 01:24:16;;;;;;;3.15;1.30;;;22.20;86.70;;;;;;5019983;28;20107;-61
2023/07/15 01:26:42;;;;;;;2.85;1.25;;;22.20;87.10;;;;;;5016975;28;20087;-62
2023/07/15 01:29:07;;;;;;;1.83;1.02;;;22.10;87.60;;;;;;5030721;28;20037;-62
2023/07/15 01:31:34;;;;;;;3.45;1.58;;;22.10;88.20;;;;;;5025493;28;20037;-62
2023/07/15 01:34:00;;;;;;;3.05;1.60;;;22.10;88.50;;;;;;5012908;28;20025;-62
2023/07/15 01:36:26;;;;;;;2.35;1.13;;;22.00;89.10;;;;;;5025261;28;20040;-61
2023/07/15 01:38:52;;;;;;;2.15;1.02;;;22.00;89.70;;;;;;5029628;28;20163;-62
2023/07/15 01:41:18;;;;;;;2.00;1.10;;;22.00;90.10;;;;;;5009975;28;20068;-62
2023/07/15 01:43:44;;;;;;;2.08;1.35;;;21.90;90.30;;;;;;5022235;28;20052;-62
2023/07/15 01:46:10;;;;;;;2.17;1.17;;;21.90;90.80;;;;;;5007636;28;20045;-62
2023/07/15 01:48:36;;;;;;;2.75;1.20;;;21.90;91.10;;;;;;5030333;28;20037;-61
2023/07/15 01:51:02;;;;;;;2.50;1.20;;;21.90;91.40;;;;;;5025184;28;20549;-62
2023/07/15 01:53:28;;;;;;;2.47;1.40;;;21.80;91.70;;;;;;5030008;28;20112;-61
2023/07/15 01:55:54;;;;;;;3.10;1.10;;;21.70;92.00;;;;;;5024938;28;20030;-62
2023/07/15 01:58:20;;;;;;;2.08;1.30;;;21.80;92.40;;;;;;5012803;28;20064;-62
2023/07/15 02:00:48;;;;;;;3.83;1.20;;;21.70;92.70;;;;;;5025412;28;20029;-62
2023/07/15 02:03:14;;;;;;;1.88;1.08;;;21.70;92.90;;;;;;5029398;28;20033;-61
2023/07/15 02:05:39;;;;;;;5.00;1.55;;;21.70;93.10;;;;;;5008860;28;20189;-61
2023/07/15 02:08:05;;;;;;;5.47;1.13;;;21.70;93.30;;;;;;5028400;28;20037;-61
2023/07/15 02:10:31;;;;;;;2.60;1.40;;;21.60;93.50;;;;;;5026452;28;20188;-61
2023/07/15 02:12:57;;;;;;;2.15;1.00;;;21.60;93.90;;;;;;5009605;28;20030;-62
2023/07/15 02:15:23;;;;;;;2.33;1.30;;;21.60;94.00;;;;;;5019473;28;20033;-61
2023/07/15 02:17:49;;;;;;;3.65;1.35;;;21.60;94.30;;;;;;5026040;28;20033;-61
2023/07/15 02:20:15;;;;;;;4.45;1.55;;;21.50;94.80;;;;;;5030125;28;20436;-61
2023/07/15 02:22:41;;;;;;;2.63;1.52;;;21.40;95.30;;;;;;4990593;28;20025;-61
2023/07/15 02:25:08;;;;;;;2.25;1.17;;;21.50;95.40;;;;;;5030312;28;20037;-62
2023/07/15 02:27:34;;;;;;;10.85;1.27;;;21.50;95.40;;;;;;5006977;28;20033;-62
2023/07/15 02:29:59;;;;;;;1.52;1.05;;;21.50;95.60;;;;;;5030326;28;20037;-62
2023/07/15 02:32:39;;;;;;;1.30;0.85;;;21.50;95.70;;;;;;5006791;28;20100;-62
2023/07/15 02:35:10;;;;;;;5.65;1.38;;;21.50;95.90;;;;;;5012976;28;20041;-61
2023/07/15 02:37:38;;;;;;;1.25;0.77;;;21.50;96.10;;;;;;5007097;28;20477;-61
2023/07/15 02:40:04;;;;;;;2.22;1.10;;;21.50;96.20;;;;;;5012493;28;20029;-62
2023/07/15 02:42:33;;;;;;;2.20;1.45;;;21.60;96.30;;;;;;5005497;28;20034;-61
2023/07/15 02:45:04;;;;;;;3.03;1.33;;;21.60;96.60;;;;;;5014289;28;20034;-61
2023/07/15 02:47:31;;;;;;;3.15;1.23;;;21.60;96.50;;;;;;5023846;28;20034;-61
2023/07/15 02:50:06;;;;;;;1.92;1.05;;;21.70;96.60;;;;;;5012444;28;20041;-61
2023/07/15 02:52:32;;;;;;;1.40;0.90;;;21.70;96.80;;;;;;5006808;28;20039;-61
2023/07/15 02:55:03;;;;;;;3.13;1.35;;;21.70;96.90;;;;;;5030034;28;20393;-61
2023/07/15 02:57:29;;;;;;;2.50;1.05;;;21.70;97.00;;;;;;5024482;28;20025;-61
2023/07/15 02:59:58;;;;;;;4.25;1.42;;;21.70;97.00;;;;;;5012321;28;20041;-61
2023/07/15 03:02:25;;;;;;;2.83;1.33;;;21.70;97.00;;;;;;4996975;28;20034;-61
2023/07/15 03:04:51;;;;;;;2.80;1.27;;;21.70;97.20;;;;;;4989404;28;20053;-62
2023/07/15 03:07:18;;;;;;;3.80;1.20;;;21.70;97.40;;;;;;4996443;28;20083;-61
2023/07/15 03:09:44;;;;;;;2.03;1.05;;;21.60;97.50;;;;;;5029693;28;20116;-61
2023/07/15 03:12:11;;;;;;;3.40;1.33;;;21.60;97.60;;;;;;5007495;28;20030;-61
2023/07/15 03:14:37;;;;;;;4.75;1.70;;;21.60;97.80;;;;;;5028978;28;20573;-61
2023/07/15 03:17:04;;;;;;;1.83;1.10;;;21.60;98.00;;;;;;5022270;28;20109;-61
2023/07/15 03:19:31;;;;;;;2.67;1.30;;;21.60;98.20;;;;;;5026539;28;20022;-61
2023/07/15 03:21:58;;;;;;;4.60;1.30;;;21.60;98.30;;;;;;5003750;28;20048;-61
2023/07/15 03:24:25;;;;;;;3.60;1.40;;;21.60;98.50;;;;;;5031510;28;20033;-61
2023/07/15 03:26:53;;;;;;;3.28;1.30;;;21.50;98.60;;;;;;5046464;22;20101;-70
2023/07/15 03:29:22;;;;;;;5.95;1.73;;;21.50;98.70;;;;;;5052495;28;20104;-71
2023/07/15 03:31:48;;;;;;;2.25;1.33;;;21.40;99.00;;;;;;5014890;28;20370;-69
2023/07/15 03:34:14;;;;;;;3.10;1.40;;;21.40;99.20;;;;;;5034479;28;20021;-70
2023/07/15 03:36:40;;;;;;;4.40;1.60;;;21.40;99.30;;;;;;5044099;28;20112;-69
2023/07/15 03:39:06;;;;;;;2.13;1.15;;;21.40;99.50;;;;;;5030849;28;20044;-69
2023/07/15 03:41:33;;;;;;;2.78;1.30;;;21.40;99.80;;;;;;5012333;28;20040;-69
2023/07/15 03:43:59;;;;;;;3.42;1.50;;;21.40;99.90;;;;;;5029927;28;20026;-70
2023/07/15 03:46:25;;;;;;;2.30;1.20;;;21.30;99.90;;;;;;5030518;28;20135;-70
2023/07/15 03:48:51;;;;;;;3.10;1.13;;;21.40;99.90;;;;;;5011137;28;20044;-69
2023/07/15 03:51:17;;;;;;;2.38;1.15;;;21.40;99.90;;;;;;5031498;28;20026;-69
2023/07/15 03:53:43;;;;;;;2.70;1.20;;;21.50;99.90;;;;;;5009291;28;20041;-69
2023/07/15 03:56:08;;;;;;;2.80;1.33;;;21.50;99.90;;;;;;5032071;28;20049;-70
2023/07/15 03:58:34;;;;;;;2.97;1.10;;;21.50;99.90;;;;;;5014304;28;20032;-69
2023/07/15 04:01:00;;;;;;;2.83;1.30;;;21.50;99.90;;;;;;5035346;28;20110;-70
2023/07/15 04:03:26;;;;;;;3.33;1.38;;;21.50;99.90;;;;;;5041734;28;20037;-69
2023/07/15 04:05:52;;;;;;;2.55;1.10;;;21.40;99.90;;;;;;5018183;28;20048;-69
2023/07/15 04:08:17;;;;;;;2.60;1.42;;;21.40;99.90;;;;;;5037713;28;20033;-69
2023/07/15 04:10:46;;;;;;;3.83;1.38;;;21.40;99.90;;;;;;5007635;28;20033;-69
2023/07/15 04:13:13;;;;;;;1.92;1.02;;;21.40;99.90;;;;;;5018921;28;20056;-69
2023/07/15 04:15:39;;;;;;;2.15;1.13;;;21.40;99.90;;;;;;5044408;28;20021;-69
2023/07/15 04:18:05;;;;;;;3.55;1.45;;;21.30;99.90;;;;;;5029794;28;20032;-69
2023/07/15 04:20:30;;;;;;;3.42;1.15;;;21.30;99.90;;;;;;5032063;28;20482;-69
2023/07/15 04:22:56;;;;;;;2.25;1.20;;;21.40;99.90;;;;;;5019890;28;20605;-69
2023/07/15 04:25:22;;;;;;;5.57;1.58;;;21.30;99.90;;;;;;5044258;28;20037;-69
2023/07/15 04:27:48;;;;;;;2.80;1.08;;;21.20;99.90;;;;;;5014746;28;20105;-61
2023/07/15 04:30:13;;;;;;;4.55;1.73;;;21.30;99.90;;;;;;5031550;28;20033;-61
2023/07/15 04:32:39;;;;;;;3.17;1.42;;;21.30;99.90;;;;;;5025869;28;20033;-61
2023/07/15 04:35:05;;;;;;;2.28;1.10;;;21.40;99.90;;;;;;5031836;28;20115;-61
2023/07/15 04:37:31;;;;;;;4.07;1.30;;;21.30;99.90;;;;;;5026032;28;20033;-60
2023/07/15 04:39:57;;;;;;;1.92;1.45;;;21.40;99.90;;;;;;5031633;28;20033;-60
2023/07/15 04:42:22;;;;;;;2.95;1.40;;;21.40;99.90;;;;;;5025453;28;20037;-61
2023/07/15 04:44:48;;;;;;;4.45;1.35;;;21.60;99.90;;;;;;5013865;28;20501;-62
2023/07/15 04:47:14;;;;;;;2.45;1.25;;;21.60;99.90;;;;;;5025219;28;20051;-62
2023/07/15 04:49:40;;;;;;;4.18;1.42;;;21.70;99.90;;;;;;5013852;28;20485;-63
2023/07/15 04:52:06;;;;;;;5.38;1.67;;;21.70;99.90;;;;;;5029362;28;20036;-61
2023/07/15 04:54:32;;;;;;;3.40;1.67;;;21.80;99.90;;;;;;5030712;28;20030;-62
2023/07/15 04:56:58;;;;;;;1.92;1.25;;;21.80;99.90;;;;;;5030462;28;20033;-62
2023/07/15 04:59:23;;;;;;;7.70;1.90;;;21.90;99.90;;;;;;5013583;28;20041;-62
2023/07/15 05:01:49;;;;;;;3.03;1.33;;;21.90;99.90;;;;;;5026166;28;20040;-61
2023/07/15 05:04:15;;;;;;;2.10;1.40;;;22.00;99.50;;;;;;5029949;28;20112;-61
2023/07/15 05:06:41;;;;;;;3.70;1.80;;;22.20;99.20;;;;;;4989889;28;20128;-60
2023/07/15 05:09:07;;;;;;;2.80;1.23;;;22.20;98.80;;;;;;5030139;28;20034;-60
2023/07/15 05:11:33;;;;;;;3.67;1.88;;;22.30;98.90;;;;;;5028333;28;20519;-60
2023/07/15 05:13:59;;;;;;;3.90;1.80;;;22.40;98.80;;;;;;5028199;28;20029;-60
2023/07/15 05:16:25;;;;;;;2.55;1.58;;;22.50;98.50;;;;;;5027127;28;20035;-61
2023/07/15 05:18:51;;;;;;;4.30;1.73;;;22.60;98.40;;;;;;5027897;28;20033;-61
2023/07/15 05:21:17;;;;;;;3.25;1.48;;;22.60;98.30;;;;;;5012194;28;20400;-61
2023/07/15 05:23:42;;;;;;;3.15;1.55;;;22.70;98.30;;;;;;5026035;28;20037;-60
2023/07/15 05:26:08;;;;;;;3.17;1.52;;;22.90;98.00;;;;;;5030050;28;20034;-61
2023/07/15 05:28:35;;;;;;;5.30;1.38;;;23.00;98.00;;;;;;5025371;28;20076;-61
2023/07/15 05:31:03;;;;;;;4.20;1.73;;;23.10;97.80;;;;;;5030675;28;20095;-60
2023/07/15 05:33:29;;;;;;;4.20;1.63;;;23.20;97.60;;;;;;5024724;28;20018;-60
2023/07/15 05:35:56;;;;;;;10.68;1.90;;;23.30;97.70;;;;;;4996083;28;20057;-62
2023/07/15 05:38:26;;;;;;;2.22;1.15;;;23.50;97.50;;;;;;5012157;28;20033;-61
2023/07/15 05:40:54;;;;;;;2.42;1.25;;;23.50;97.10;;;;;;5013007;28;20087;-62
2023/07/15 05:43:19;;;;;;;2.28;1.35;;;23.70;97.00;;;;;;5024753;28;20045;-61
2023/07/15 05:45:48;;;;;;;2.80;1.27;;;23.70;96.60;;;;;;5030352;28;20029;-62
2023/07/15 05:48:14;;;;;;;3.90;0.93;;;23.80;96.50;;;;;;5024519;28;20112;-62
2023/07/15 05:50:40;;;;;;;3.13;1.20;;;23.90;96.40;;;;;;5030457;28;20108;-71
2023/07/15 05:53:10;;;;;;;2.50;1.55;;;23.90;96.20;;;;;;5009642;28;20030;-71
2023/07/15 05:55:35;;;;;;;2.17;1.08;;;24.10;96.40;;;;;;5028907;28;20497;-73
2023/07/15 05:58:02;;;;;;;2.33;1.02;;;24.30;95.80;;;;;;5020811;28;20037;-72
2023/07/15 06:00:31;;;;;;;2.10;0.93;;;24.40;95.70;;;;;;5027078;28;20111;-72
2023/07/15 06:02:57;;;;;;;1.92;1.20;;;24.60;95.00;;;;;;5013543;28;20397;-71
2023/07/15 06:05:23;;;;;;;2.03;1.05;;;24.80;95.00;;;;;;5037877;28;20033;-72
2023/07/15 06:07:48;;;;;;;2.00;1.23;;;24.80;94.70;;;;;;5027338;28;20110;-70
2023/07/15 06:10:15;;;;;;;1.70;1.05;;;24.90;94.40;;;;;;5018953;28;20033;-68
2023/07/15 06:12:42;;;;;;;1.95;1.10;;;25.00;94.10;;;;;;5025113;28;20013;-68
2023/07/15 06:15:08;;;;;;;4.38;1.50;;;25.10;93.80;;;;;;5009516;28;20030;-69
2023/07/15 06:17:34;;;;;;;2.45;1.42;;;25.20;93.50;;;;;;5029415;28;20108;-71
2023/07/15 06:20:00;;;;;;;3.65;1.13;;;25.30;93.60;;;;;;5021095;28;20563;-72
2023/07/15 06:22:26;;;;;;;1.90;1.00;;;25.30;93.20;;;;;;5029818;28;20056;-71
2023/07/15 06:24:51;;;;;;;4.05;1.00;;;25.40;93.40;;;;;;5028144;28;20039;-70
2023/07/15 06:27:18;;;;;;;1.75;1.17;;;25.50;93.10;;;;;;5028675;28;20045;-71
2023/07/15 06:29:45;;;;;;;4.35;1.08;;;25.50;93.30;;;;;;5028553;28;20029;-72
2023/07/15 06:32:10;;;;;;;1.95;1.05;;;25.50;93.00;;;;;;5012174;28;20018;-72
2023/07/15 06:34:36;;;;;;;2.03;1.00;;;25.60;92.90;;;;;;5029190;28;20445;-71
2023/07/15 06:37:02;;;;;;;1.70;1.05;;;25.70;92.20;;;;;;5029748;28;20416;-66
2023/07/15 06:39:28;;;;;;;5.88;1.00;;;25.90;91.60;;;;;;5024104;28;20029;-67
2023/07/15 06:41:53;;;;;;;2.25;1.13;;;26.10;91.40;;;;;;5026162;28;20547;-68
2023/07/15 06:44:19;;;;;;;1.92;1.00;;;26.20;91.00;;;;;;5022697;28;20057;-69
2023/07/15 06:46:45;;;;;;;2.03;0.80;;;26.40;91.20;;;;;;5025866;28;20079;-67
2023/07/15 06:49:11;;;;;;;1.48;0.90;;;26.40;91.30;;;;;;5032702;28;20157;-67
2023/07/15 06:51:36;;;;;;;1.80;1.00;;;26.50;91.20;;;;;;5021681;28;20416;-68
2023/07/15 06:54:02;;;;;;;1.92;1.30;;;26.40;91.20;;;;;;5021129;28;20034;-69
2023/07/15 06:56:29;;;;;;;1.23;0.80;;;26.50;91.10;;;;;;5013123;28;20029;-68
2023/07/15 06:58:54;;;;;;;2.70;1.20;;;26.50;91.10;;;;;;5026143;28;20037;-68
2023/07/15 07:01:20;;;;;;;2.10;1.00;;;26.50;90.90;;;;;;5031481;28;20416;-69
2023/07/15 07:03:46;;;;;;;2.08;1.17;;;26.40;91.10;;;;;;5015180;28;20461;-68
2023/07/15 07:06:13;;;;;;;1.65;1.00;;;26.50;91.10;;;;;;5023797;28;20045;-72
2023/07/15 07:08:38;;;;;;;1.52;0.90;;;26.40;91.20;;;;;;5025647;28;20486;-81
2023/07/15 07:11:04;;;;;;;2.53;1.23;;;26.50;91.10;;;;;;5009868;28;20033;-81
2023/07/15 07:13:30;;;;;;;1.98;1.02;;;26.50;91.30;;;;;;5020557;28;20033;-81
2023/07/15 07:15:57;;;;;;;1.83;1.10;;;26.60;91.10;;;;;;5020470;28;20026;-81
2023/07/15 07:18:26;;;;;;;2.03;1.00;;;26.70;90.80;;;;;;5021266;28;20037;-81
2023/07/15 07:20:59;;;;;;;5.15;1.27;;;26.70;90.90;;;;;;5000323;28;20042;-81
2023/07/15 07:23:26;;;;;;;2.08;1.30;;;26.50;91.00;;;;;;5017981;28;20037;-80
2023/07/15 07:25:52;;;;;;;5.68;1.23;;;26.40;91.10;;;;;;4988808;28;20037;-80
2023/07/15 07:28:23;;;;;;;2.75;1.42;;;26.50;90.80;;;;;;5001240;28;20125;-80
2023/07/15 07:30:50;;;;;;;1.10;0.82;;;26.60;90.70;;;;;;5019165;28;20037;-80
2023/07/15 07:33:16;;;;;;;2.38;1.00;;;26.50;90.60;;;;;;4998698;28;20033;-82
2023/07/15 07:35:46;;;;;;;2.85;1.23;;;26.20;90.80;;;;;;5001395;28;20500;-82
2023/07/15 07:38:13;;;;;;;3.20;1.25;;;26.20;90.90;;;;;;5018503;28;20026;-82
2023/07/15 07:40:39;;;;;;;3.53;1.83;;;26.20;91.40;;;;;;5031434;28;20139;-83
2023/07/15 07:43:05;;;;;;;1.85;1.13;;;26.10;91.30;;;;;;5034151;28;20021;-82
2023/07/15 07:45:30;;;;;;;2.03;1.27;;;26.10;91.50;;;;;;5032677;28;20032;-82
2023/07/15 07:47:56;;;;;;;2.47;1.25;;;26.20;91.40;;;;;;5032264;28;20049;-82
2023/07/15 07:50:22;;;;;;;2.40;1.25;;;26.30;91.30;;;;;;5029371;28;20060;-81
2023/07/15 07:52:48;;;;;;;2.65;1.40;;;26.30;91.20;;;;;;5031956;28;20026;-82
2023/07/15 07:55:14;;;;;;;2.53;1.50;;;26.40;90.90;;;;;;5013983;28;20032;-81
2023/07/15 07:57:39;;;;;;;3.05;1.70;;;26.60;90.90;;;;;;5031424;28;20091;-81
2023/07/15 08:00:06;;;;;;;1.10;0.85;;;26.60;90.70;;;;;;5029329;28;20029;-81
2023/07/15 08:02:32;;;;;;;1.80;1.00;;;26.70;90.30;;;;;;5014271;28;20053;-81
2023/07/15 08:04:57;;;;;;;1.83;1.00;;;26.70;90.10;;;;;;5032837;28;20146;-81
2023/07/15 08:07:23;;;;;;;2.10;1.20;;;26.70;90.00;;;;;;5032949;28;20044;-81
2023/07/15 08:09:49;;;;;;;2.58;1.05;;;26.70;90.20;;;;;;5031113;28;20058;-81
2023/07/15 08:12:17;;;;;;;2.55;1.17;;;27.00;90.50;;;;;;5040946;28;20025;-81
2023/07/15 08:14:43;;;;;;;2.15;1.20;;;27.10;89.10;;;;;;5031542;28;20157;-81
2023/07/15 08:17:09;;;;;;;1.88;1.00;;;27.10;89.20;;;;;;5018268;28;20424;-81
2023/07/15 08:19:35;;;;;;;2.25;1.10;;;27.40;88.90;;;;;;5034411;28;20080;-81
2023/07/15 08:22:00;;;;;;;3.13;0.80;;;27.30;89.40;;;;;;5017705;28;20041;-81
2023/07/15 08:24:26;;;;;;;1.88;1.13;;;27.60;90.00;;;;;;5035554;28;20397;-81
2023/07/15 08:26:52;;;;;;;1.75;1.25;;;27.70;89.50;;;;;;5037437;28;20033;-81
2023/07/15 08:29:18;;;;;;;1.42;0.93;;;27.70;89.10;;;;;;5016909;28;20036;-81
2023/07/15 08:31:44;;;;;;;3.50;1.40;;;27.80;87.90;;;;;;5034149;28;20030;-81
2023/07/15 08:34:10;;;;;;;3.15;1.10;;;28.00;88.30;;;;;;5034214;28;20160;-81
2023/07/15 08:36:36;;;;;;;1.95;1.05;;;28.10;86.70;;;;;;5033679;28;20064;-81
2023/07/15 08:39:02;;;;;;;1.27;0.85;;;28.30;84.60;;;;;;5015493;28;20128;-81
2023/07/15 08:41:28;;;;;;;2.10;1.00;;;28.50;84.50;;;;;;5015147;28;20041;-81
2023/07/15 08:43:54;;;;;;;2.60;1.23;;;28.20;85.80;;;;;;5013649;28;20515;-79
2023/07/15 08:46:29;;;;;;;2.05;1.20;;;28.20;84.30;;;;;;5014778;28;20385;-78
2023/07/15 08:48:57;;;;;;;1.63;0.95;;;28.30;84.90;;;;;;5015541;28;20041;-75
2023/07/15 08:51:30;;;;;;;1.92;1.00;;;28.40;84.30;;;;;;5027777;28;20453;-75
2023/07/15 08:53:56;;;;;;;2.20;1.00;;;28.50;83.30;;;;;;5013925;28;20038;-84
2023/07/15 08:56:24;;;;;;;2.13;1.20;;;28.70;83.30;;;;;;5028633;28;20029;-81
2023/07/15 08:58:50;;;;;;;2.75;1.25;;;28.90;81.80;;;;;;5013419;28;20032;-83
2023/07/15 09:01:16;;;;;;;2.28;1.38;;;29.30;83.10;;;;;;5027500;28;20188;-80
2023/07/15 09:03:42;;;;;;;2.15;0.98;;;29.40;82.30;;;;;;5030869;28;20683;-76
2023/07/15 09:06:08;;;;;;;1.67;0.90;;;29.50;82.00;;;;;;5013027;28;20030;-75
2023/07/15 09:08:34;;;;;;;1.58;0.90;;;29.40;81.90;;;;;;5013022;28;20371;-75
2023/07/15 09:11:01;;;;;;;2.55;1.27;;;29.40;82.10;;;;;;5018993;28;20036;-76
2023/07/15 09:13:29;;;;;;;2.08;1.10;;;29.60;82.50;;;;;;5012819;28;20021;-75
2023/07/15 09:15:57;;;;;;;13.52;2.53;;;29.60;80.90;;;;;;5012963;28;20041;-75
2023/07/15 09:18:24;;;;;;;2.25;0.95;;;29.90;80.50;;;;;;5013093;28;20042;-76
2023/07/15 09:20:50;;;;;;;2.55;0.90;;;30.20;79.50;;;;;;4996035;28;20033;-76
2023/07/15 09:23:18;;;;;;;2.17;1.20;;;30.20;80.30;;;;;;5012703;28;20112;-75
2023/07/15 09:25:54;;;;;;;2.90;1.27;;;30.10;80.10;;;;;;5006321;28;20054;-74
2023/07/15 09:28:21;;;;;;;2.67;1.48;;;30.10;80.10;;;;;;4990399;28;20025;-73
2023/07/15 09:30:47;;;;;;;3.53;1.23;;;30.30;77.90;;;;;;5011932;28;20029;-75
2023/07/15 09:33:40;;;;;;;1.48;1.10;;;30.20;79.00;;;;;;5028539;28;20071;-73
2023/07/15 09:36:06;;;;;;;2.30;1.10;;;30.30;78.40;;;;;;5024919;23;20076;-73
2023/07/15 09:38:37;;;;;;;3.42;1.20;;;30.40;79.10;;;;;;5023082;28;20037;-76
2023/07/15 09:41:07;;;;;;;3.30;1.00;;;30.40;78.20;;;;;;5011073;28;20045;-76
2023/07/15 09:43:54;;;;;;;4.22;1.10;;;30.30;78.60;;;;;;5021698;28;20473;-79
2023/07/15 09:46:21;;;;;;;1.80;0.90;;;30.40;77.90;;;;;;5029137;28;20120;-77
2023/07/15 09:48:51;;;;;;;2.40;1.10;;;30.30;77.20;;;;;;5029216;28;20029;-76
2023/07/15 09:51:18;;;;;;;4.20;1.15;;;30.10;75.50;;;;;;5011330;28;20515;-77
2023/07/15 09:53:53;;;;;;;2.45;1.25;;;30.00;76.70;;;;;;5007813;28;20036;-77
2023/07/15 09:56:25;;;;;;;2.75;1.13;;;29.80;76.80;;;;;;4995964;28;20048;-75
2023/07/15 09:58:56;;;;;;;2.15;1.25;;;29.40;78.00;;;;;;5029852;28;20068;-79
2023/07/15 10:02:29;;;;;;;2.72;1.13;;;29.40;78.70;;;;;;5011167;28;20029;-78
2023/07/15 10:05:03;;;;;;;3.38;1.13;;;29.30;78.40;;;;;;4971346;28;20042;-78
2023/07/15 10:07:35;;;;;;;3.88;1.25;;;29.20;79.00;;;;;;4973702;28;20080;-79
2023/07/15 10:10:02;;;;;;;4.55;1.05;;;29.20;79.40;;;;;;4994475;28;20038;-79
2023/07/15 10:12:29;;;;;;;1.35;0.80;;;29.20;79.40;;;;;;5034886;28;20033;-78
2023/07/15 10:15:00;;;;;;;1.42;0.90;;;29.20;79.20;;;;;;5020320;28;20044;-80
2023/07/15 10:17:37;;;;;;;2.63;1.23;;;29.30;79.30;;;;;;4998206;28;20026;-80
2023/07/15 10:20:10;;;;;;;2.50;1.15;;;29.30;79.40;;;;;;4994747;28;20386;-78
2023/07/15 10:22:38;;;;;;;1.80;0.95;;;29.30;79.90;;;;;;4988682;28;20418;-79
2023/07/15 10:25:09;;;;;;;2.97;1.23;;;29.40;79.90;;;;;;5027143;28;20045;-78
2023/07/15 10:27:36;;;;;;;2.92;1.17;;;29.60;80.00;;;;;;5016634;28;20494;-77
2023/07/15 10:30:18;;;;;;;2.65;1.00;;;29.60;80.50;;;;;;5014855;28;20064;-79
2023/07/15 10:33:00;;;;;;;3.33;1.00;;;29.80;80.10;;;;;;5011124;28;20034;-78
2023/07/15 10:35:32;;;;;;;5.50;1.85;;;29.70;79.80;;;;;;5013856;28;20044;-78
2023/07/15 10:38:19;;;;;;;3.90;1.02;;;29.80;80.40;;;;;;5032866;28;20037;-78
2023/07/15 10:40:48;;;;;;;2.03;1.20;;;29.80;79.50;;;;;;5001984;28;20025;-77
2023/07/15 10:43:35;;;;;;;2.72;1.17;;;29.60;80.30;;;;;;5032145;28;20037;-79
2023/07/15 10:46:12;;;;;;;2.70;1.20;;;29.60;80.00;;;;;;5030819;28;20047;-78
2023/07/15 10:48:39;;;;;;;4.28;1.08;;;29.50;80.60;;;;;;5012974;28;20057;-78
2023/07/15 10:51:16;;;;;;;2.60;1.25;;;29.30;80.90;;;;;;5017671;28;20052;-78
2023/07/15 10:53:42;;;;;;;3.30;1.23;;;29.40;80.70;;;;;;5031246;28;20025;-78
2023/07/15 10:56:11;;;;;;;1.98;1.20;;;29.40;80.30;;;;;;5015524;28;20021;-78
2023/07/15 10:58:40;;;;;;;1.38;0.93;;;29.30;80.80;;;;;;5015446;28;20041;-78
2023/07/15 11:01:11;;;;;;;2.00;1.20;;;29.40;80.60;;;;;;5013705;28;20137;-78
2023/07/15 11:03:43;;;;;;;3.63;1.52;;;29.20;81.10;;;;;;5006150;28;20029;-79
2023/07/15 11:06:11;;;;;;;1.50;1.00;;;29.10;81.50;;;;;;5030090;28;20395;-78
2023/07/15 11:08:39;;;;;;;3.15;1.20;;;29.10;81.50;;;;;;4993475;28;20045;-79
2023/07/15 11:11:07;;;;;;;3.45;1.17;;;29.10;81.90;;;;;;5031935;28;20613;-79
2023/07/15 11:13:40;;;;;;;4.18;1.25;;;29.10;81.80;;;;;;5014241;28;20091;-79
2023/07/15 11:16:10;;;;;;;3.00;1.60;;;29.20;82.00;;;;;;5031494;28;20033;-80
2023/07/15 11:18:35;;;;;;;2.25;1.10;;;29.20;83.60;;;;;;4996969;28;20038;-80
2023/07/15 11:21:01;;;;;;;1.95;1.10;;;29.10;84.20;;;;;;5031516;28;20063;-80
2023/07/15 11:23:28;;;;;;;2.38;1.17;;;29.10;84.20;;;;;;5012215;28;20041;-79
2023/07/15 11:25:55;;;;;;;2.20;1.23;;;29.10;83.30;;;;;;5027683;28;20445;-79
2023/07/15 11:28:21;;;;;;;2.15;1.15;;;28.80;82.70;;;;;;5011443;28;20037;-79
2023/07/15 11:30:48;;;;;;;4.25;1.80;;;28.70;84.20;;;;;;5030683;28;20030;-79
2023/07/15 11:33:15;;;;;;;3.80;1.48;;;28.90;84.50;;;;;;5025431;28;20109;-64
2023/07/15 11:35:43;;;;;;;2.72;1.20;;;28.80;85.00;;;;;;5012443;28;20515;-72
2023/07/15 11:38:15;;;;;;;5.78;1.38;;;28.70;85.10;;;;;;5032233;28;20033;-70
2023/07/15 11:40:58;;;;;;;2.22;1.25;;;28.70;84.30;;;;;;5039274;28;20361;-70
2023/07/15 11:43:28;;;;;;;3.90;1.95;;;28.60;85.00;;;;;;5031918;28;20053;-71
2023/07/15 11:45:56;;;;;;;2.95;1.42;;;28.80;84.60;;;;;;5013344;28;20108;-69
2023/07/15 11:48:27;;;;;;;4.90;1.50;;;28.90;85.00;;;;;;5030153;28;20033;-70
2023/07/15 11:50:57;;;;;;;2.72;1.20;;;28.90;84.90;;;;;;5011181;28;20048;-70
2023/07/15 11:53:31;;;;;;;1.52;1.10;;;29.00;85.60;;;;;;5029425;28;20527;-68
2023/07/15 11:55:57;;;;;;;4.20;1.40;;;29.20;84.70;;;;;;5005206;28;20061;-69
2023/07/15 11:58:44;;;;;;;2.10;1.08;;;29.40;84.30;;;;;;5015317;28;20030;-69
2023/07/15 12:01:16;;;;;;;3.13;1.33;;;29.50;83.60;;;;;;5014659;28;20037;-69
2023/07/15 12:03:48;;;;;;;2.67;1.30;;;29.70;84.10;;;;;;4988305;28;20033;-69
2023/07/15 12:06:21;;;;;;;3.13;1.40;;;29.90;83.60;;;;;;5027604;28;20032;-68
2023/07/15 12:09:25;;;;;;;2.08;1.17;;;30.20;82.70;;;;;;5025642;28;20116;-68
2023/07/15 12:11:51;;;;;;;2.95;1.10;;;29.80;83.20;;;;;;4957681;28;20439;-68
2023/07/15 12:14:18;;;;;;;3.60;1.38;;;30.10;82.80;;;;;;4934427;29;20039;-70
2023/07/15 12:16:44;;;;;;;2.33;1.20;;;29.70;83.00;;;;;;4935505;29;20032;-71
2023/07/15 12:19:12;;;;;;;2.03;1.17;;;29.80;83.50;;;;;;4934699;29;20531;-71
2023/07/15 12:21:39;;;;;;;3.42;1.60;;;29.90;83.20;;;;;;4935583;29;20038;-72
2023/07/15 12:24:05;;;;;;;3.47;1.48;;;30.00;83.20;;;;;;4934781;29;20134;-71
2023/07/15 12:26:32;;;;;;;3.55;1.35;;;29.80;83.30;;;;;;4951267;28;20118;-68
2023/07/15 12:28:58;;;;;;;5.40;1.70;;;29.60;83.80;;;;;;4964255;28;20070;-68
2023/07/15 12:31:24;;;;;;;3.95;1.60;;;29.30;84.30;;;;;;4958450;28;20114;-70
2023/07/15 12:33:50;;;;;;;5.38;2.20;;;29.50;84.60;;;;;;4942456;28;20038;-70
2023/07/15 12:36:17;;;;;;;5.68;1.80;;;29.70;85.00;;;;;;4951364;29;20507;-70
2023/07/15 12:38:43;;;;;;;2.55;1.42;;;29.90;85.30;;;;;;4920695;29;20122;-69
2023/07/15 12:41:10;;;;;;;14.50;1.38;;;30.20;83.90;;;;;;4950334;29;20071;-68
2023/07/15 12:43:38;;;;;;;4.68;1.77;;;30.40;82.80;;;;;;5020094;28;20183;-69
2023/07/15 12:46:04;;;;;;;4.20;1.75;;;30.60;83.10;;;;;;5030773;28;20120;-72
2023/07/15 12:48:31;;;;;;;2.70;1.23;;;31.00;81.30;;;;;;5031626;28;20048;-70
2023/07/15 12:50:57;;;;;;;4.00;1.15;;;31.30;81.50;;;;;;5010309;28;20033;-75